createdAt,value
2018-10-12T00:02:04.546Z,101031.45
2018-10-12T00:04:32.714Z,101030.30
2018-10-12T00:07:00.871Z,101031.62
2018-10-12T00:09:29.039Z,101022.79
2018-10-12T00:11:57.215Z,101017.45
2018-10-12T00:14:25.384Z,101025.95
2018-10-12T00:16:53.535Z,101032.28
2018-10-12T00:19:21.683Z,101038.61
2018-10-12T00:21:49.901Z,101043.94
2018-10-12T00:24:18.068Z,101045.93
2018-10-12T00:26:46.222Z,101057.63
2018-10-12T00:29:14.382Z,101057.28
2018-10-12T00:31:42.526Z,101058.77
2018-10-12T00:34:10.738Z,101069.09
2018-10-12T00:36:38.907Z,101062.59
2018-10-12T00:39:07.856Z,101063.92
2018-10-12T00:41:36.131Z,101075.42
2018-10-12T00:44:04.335Z,101075.27
2018-10-12T00:46:32.554Z,101076.60
2018-10-12T00:49:00.790Z,101075.08
2018-10-12T00:51:29.055Z,101074.25
2018-10-12T00:53:57.227Z,101077.25
2018-10-12T00:56:25.381Z,101080.27
2018-10-12T00:58:53.577Z,101079.92
2018-10-12T01:01:21.759Z,101082.59
2018-10-12T01:03:50.411Z,101082.59
2018-10-12T01:06:18.883Z,101088.27
2018-10-12T01:08:47.074Z,101090.09
2018-10-12T01:11:15.220Z,101079.42
2018-10-12T01:13:43.419Z,101083.92
2018-10-12T01:16:11.593Z,101079.42
2018-10-12T01:18:39.757Z,101077.59
2018-10-12T01:21:07.920Z,101079.08
2018-10-12T01:23:36.163Z,101080.91
2018-10-12T01:26:04.401Z,101091.58
2018-10-12T01:28:32.573Z,101091.92
2018-10-12T01:31:00.747Z,101097.45
2018-10-12T01:33:28.926Z,101083.61
2018-10-12T01:35:57.135Z,101081.63
2018-10-12T01:38:25.307Z,101067.27
2018-10-12T01:40:53.516Z,101067.27
2018-10-12T01:43:21.667Z,101069.62
2018-10-12T01:45:49.863Z,101075.77
2018-10-12T01:48:18.046Z,101071.61
2018-10-12T01:50:46.248Z,101070.59
2018-10-12T01:53:14.409Z,101065.56
2018-10-12T01:55:42.555Z,101080.05
2018-10-12T01:58:10.724Z,101081.37
2018-10-12T02:00:38.899Z,101081.53
2018-10-12T02:03:07.083Z,101089.19
2018-10-12T02:05:35.218Z,101101.87
2018-10-12T02:08:03.378Z,101111.50
2018-10-12T02:10:31.559Z,101109.98
2018-10-12T02:12:59.744Z,101111.47
2018-10-12T02:15:27.894Z,101114.29
2018-10-12T02:17:56.059Z,101115.13
2018-10-12T02:20:24.197Z,101109.95
2018-10-12T02:22:52.372Z,101117.11
2018-10-12T02:25:20.563Z,101111.92
2018-10-12T02:27:48.762Z,101118.09
2018-10-12T02:30:16.900Z,101109.11
2018-10-12T02:32:45.069Z,101108.80
2018-10-12T02:35:13.245Z,101114.48
2018-10-12T02:37:41.431Z,101113.98
2018-10-12T02:40:09.602Z,101123.66
2018-10-12T02:42:37.750Z,101123.51
2018-10-12T02:45:05.928Z,101118.17
2018-10-12T02:47:34.071Z,101116.84
2018-10-12T02:50:02.231Z,101121.34
2018-10-12T02:52:30.401Z,101128.84
2018-10-12T02:54:58.564Z,101153.67
2018-10-12T02:57:26.771Z,101163.50
2018-10-12T02:59:54.947Z,101156.16
2018-10-12T03:02:23.157Z,101152.16
2018-10-12T03:04:51.371Z,101153.48
2018-10-12T03:07:19.551Z,101155.66
2018-10-12T03:09:47.750Z,101168.34
2018-10-12T03:12:15.917Z,101175.20
2018-10-12T03:14:44.075Z,101176.00
2018-10-12T03:17:12.218Z,101182.67
2018-10-12T03:19:40.410Z,101182.52
2018-10-12T03:22:08.593Z,101181.53
2018-10-12T03:24:36.754Z,101181.19
2018-10-12T03:27:04.919Z,101183.86
2018-10-12T03:29:33.110Z,101186.17
2018-10-12T03:32:01.987Z,101184.19
2018-10-12T03:34:30.207Z,101200.83
2018-10-12T03:36:58.455Z,101207.80
2018-10-12T03:39:26.636Z,101203.61
2018-10-12T03:41:54.875Z,101198.42
2018-10-12T03:44:23.047Z,101203.41
2018-10-12T03:46:51.356Z,101195.41
2018-10-12T03:49:19.522Z,101196.41
2018-10-12T03:51:47.743Z,101200.06
2018-10-12T03:54:15.948Z,101205.88
2018-10-12T03:56:44.207Z,101211.40
2018-10-12T03:59:12.411Z,101206.87
2018-10-12T04:01:40.645Z,101216.87
2018-10-12T04:04:08.901Z,101226.36
2018-10-12T04:06:37.090Z,101231.84
2018-10-12T04:09:06.935Z,101237.66
2018-10-12T04:11:35.115Z,101239.84
2018-10-12T04:14:03.340Z,101235.84
2018-10-12T04:16:31.582Z,101246.01
2018-10-12T04:18:59.707Z,101241.31
2018-10-12T04:21:28.432Z,101251.98
2018-10-12T04:23:56.591Z,101247.98
2018-10-12T04:26:24.774Z,101253.47
2018-10-12T04:28:52.959Z,101242.25
2018-10-12T04:31:21.163Z,101242.90
2018-10-12T04:33:49.314Z,101245.89
2018-10-12T04:36:17.476Z,101249.20
2018-10-12T04:38:56.995Z,101251.81
2018-10-12T04:41:25.178Z,101250.08
2018-10-12T04:43:54.795Z,101264.54
2018-10-12T04:46:25.953Z,101273.70
2018-10-12T04:48:54.185Z,101292.49
2018-10-12T04:51:50.230Z,101286.96
2018-10-12T04:54:18.784Z,101284.09
2018-10-12T04:56:47.555Z,101286.47
2018-10-12T04:59:15.800Z,101277.00
2018-10-12T05:01:44.026Z,101274.68
2018-10-12T05:04:12.203Z,101283.37
2018-10-12T05:06:40.375Z,101289.02
2018-10-12T05:09:10.179Z,101303.03
2018-10-12T05:11:38.852Z,101310.88
2018-10-12T05:14:07.179Z,101305.41
2018-10-12T05:16:35.815Z,101311.43
2018-10-12T05:19:04.005Z,101312.47
2018-10-12T05:21:33.679Z,101319.97
2018-10-12T05:24:02.123Z,101318.50
2018-10-12T05:26:30.653Z,101329.16
2018-10-12T05:28:58.950Z,101330.63
2018-10-12T05:31:27.352Z,101333.80
2018-10-12T05:33:55.551Z,101335.41
2018-10-12T05:36:23.828Z,101336.89
2018-10-12T05:38:52.899Z,101341.03
2018-10-12T05:41:21.090Z,101347.00
2018-10-12T05:43:49.324Z,101348.97
2018-10-12T05:46:17.407Z,101355.31
2018-10-12T05:48:56.994Z,101357.28
2018-10-12T05:51:25.119Z,101356.88
2018-10-12T05:53:53.307Z,101356.32
2018-10-12T05:56:23.067Z,101359.77
2018-10-12T05:58:51.729Z,101365.37
2018-10-12T06:01:20.096Z,101357.32
2018-10-12T06:03:48.203Z,101364.96
2018-10-12T06:06:16.359Z,101367.28
2018-10-12T06:08:44.535Z,101371.27
2018-10-12T06:11:12.747Z,101369.94
2018-10-12T06:13:40.881Z,101366.44
2018-10-12T06:16:09.055Z,101374.08
2018-10-12T06:18:37.231Z,101371.91
2018-10-12T06:21:05.408Z,101373.88
2018-10-12T06:23:33.604Z,101380.88
2018-10-12T06:26:01.773Z,101375.55
2018-10-12T06:28:29.923Z,101377.38
2018-10-12T06:30:58.072Z,101387.89
2018-10-12T06:33:26.248Z,101386.91
2018-10-12T06:35:54.434Z,101397.28
2018-10-12T06:38:22.622Z,101410.11
2018-10-12T06:40:50.839Z,101436.25
2018-10-12T06:43:18.949Z,101444.25
2018-10-12T06:45:47.124Z,101449.57
2018-10-12T06:48:15.269Z,101459.39
2018-10-12T06:50:44.135Z,101468.58
2018-10-12T06:53:12.820Z,101461.28
2018-10-12T06:55:40.970Z,101462.02
2018-10-12T06:58:09.185Z,101469.20
2018-10-12T07:00:37.465Z,101473.55
2018-10-12T07:03:05.698Z,101470.75
2018-10-12T07:05:33.922Z,101481.75
2018-10-12T07:08:02.190Z,101481.13
2018-10-12T07:10:30.456Z,101488.48
2018-10-12T07:12:58.667Z,101495.36
2018-10-12T07:15:26.868Z,101490.38
2018-10-12T07:18:01.520Z,101483.55
2018-10-12T07:20:29.659Z,101478.07
2018-10-12T07:22:57.876Z,101491.25
2018-10-12T07:25:26.049Z,101491.61
2018-10-12T07:27:54.223Z,101503.11
2018-10-12T07:30:22.411Z,101506.97
2018-10-12T07:32:50.561Z,101507.31
2018-10-12T07:35:18.707Z,101514.19
2018-10-12T07:37:46.939Z,101508.08
2018-10-12T07:40:15.103Z,101519.48
2018-10-12T07:42:43.255Z,101523.69
2018-10-12T07:45:11.415Z,101522.42
2018-10-12T07:47:39.575Z,101524.98
2018-10-12T07:50:07.775Z,101526.73
2018-10-12T07:52:35.926Z,101532.86
2018-10-12T07:55:04.111Z,101525.62
2018-10-12T07:57:33.000Z,101533.89
2018-10-12T08:00:01.811Z,101534.41
2018-10-12T08:02:29.978Z,101529.48
2018-10-12T08:04:58.174Z,101529.54
2018-10-12T08:07:26.411Z,101535.43
2018-10-12T08:09:54.575Z,101537.28
2018-10-12T08:12:22.764Z,101532.99
2018-10-12T08:14:50.930Z,101528.03
2018-10-12T08:17:19.106Z,101540.25
2018-10-12T08:19:47.566Z,101540.45
2018-10-12T08:22:15.769Z,101544.16
2018-10-12T08:24:43.930Z,101553.03
2018-10-12T08:27:12.382Z,101548.73
2018-10-12T08:29:40.350Z,101548.59
2018-10-12T08:32:08.607Z,101550.62
2018-10-12T08:34:36.762Z,101552.82
2018-10-12T08:37:04.956Z,101553.08
2018-10-12T08:39:33.075Z,101556.98
2018-10-12T08:42:01.254Z,101560.87
2018-10-12T08:44:29.456Z,101558.80
2018-10-12T08:46:57.626Z,101563.70
2018-10-12T08:49:25.779Z,101570.78
2018-10-12T08:51:53.994Z,101564.50
2018-10-12T08:54:22.223Z,101567.19
2018-10-12T08:56:50.403Z,101571.59
2018-10-12T08:59:18.597Z,101567.97
2018-10-12T09:01:47.002Z,101569.67
2018-10-12T09:04:15.342Z,101563.67
2018-10-12T09:06:43.524Z,101574.41
2018-10-12T09:09:11.822Z,101571.24
2018-10-12T09:11:40.564Z,101568.45
2018-10-12T09:14:08.949Z,101570.48
2018-10-12T09:16:37.103Z,101572.01
2018-10-12T09:19:05.704Z,101574.84
2018-10-12T09:21:33.918Z,101576.03
2018-10-12T09:24:02.189Z,101573.89
2018-10-12T09:26:30.775Z,101576.61
2018-10-12T09:29:00.374Z,101569.63
2018-10-12T09:31:34.807Z,101574.48
2018-10-12T09:34:03.039Z,101572.69
2018-10-12T09:36:31.320Z,101566.69
2018-10-12T09:38:59.464Z,101576.09
2018-10-12T09:41:27.623Z,101559.86
2018-10-12T09:43:55.808Z,101566.39
2018-10-12T09:46:23.990Z,101569.41
2018-10-12T09:48:52.146Z,101568.08
2018-10-12T09:51:20.315Z,101568.11
2018-10-12T09:53:48.475Z,101568.15
2018-10-12T09:56:16.648Z,101563.90
2018-10-12T09:58:44.834Z,101563.65
2018-10-12T10:01:18.307Z,101564.97
2018-10-12T10:03:51.853Z,101552.20
2018-10-12T10:06:20.043Z,101556.59
2018-10-12T10:08:48.332Z,101557.30
2018-10-12T10:11:16.351Z,101555.12
2018-10-12T10:13:44.559Z,101551.61
2018-10-12T10:16:12.738Z,101535.52
2018-10-12T10:18:40.950Z,101540.59
2018-10-12T10:21:09.107Z,101539.27
2018-10-12T10:23:37.271Z,101537.59
2018-10-12T10:26:05.446Z,101528.02
2018-10-12T10:28:33.672Z,101530.47
2018-10-12T10:31:01.876Z,101524.75
2018-10-12T10:33:30.059Z,101524.87
2018-10-12T10:35:58.203Z,101521.45
2018-10-12T10:38:26.367Z,101518.56
2018-10-12T10:40:54.532Z,101517.16
2018-10-12T10:43:22.711Z,101511.55
2018-10-12T10:45:50.914Z,101515.70
2018-10-12T10:48:19.041Z,101519.67
2018-10-12T10:50:47.219Z,101510.17
2018-10-12T10:53:15.412Z,101505.71
2018-10-12T10:55:43.622Z,101502.58
2018-10-12T10:58:11.806Z,101500.83
2018-10-12T11:00:39.976Z,101507.94
2018-10-12T11:03:08.148Z,101500.97
2018-10-12T11:05:36.346Z,101501.56
2018-10-12T11:08:04.507Z,101496.73
2018-10-12T11:10:32.670Z,101490.88
2018-10-12T11:13:00.906Z,101489.57
2018-10-12T11:15:29.104Z,101488.28
2018-10-12T11:17:57.319Z,101481.44
2018-10-12T11:20:25.494Z,101491.09
2018-10-12T11:22:53.688Z,101486.64
2018-10-12T11:25:21.842Z,101488.59
2018-10-12T11:27:50.348Z,101489.67
2018-10-12T11:30:18.512Z,101484.94
2018-10-12T11:32:46.722Z,101479.41
2018-10-12T11:35:14.838Z,101480.23
2018-10-12T11:37:43.020Z,101484.55
2018-10-12T11:40:11.268Z,101484.39
2018-10-12T11:42:50.915Z,101480.36
2018-10-12T11:45:19.105Z,101478.44
2018-10-12T11:47:47.297Z,101475.71
2018-10-12T11:50:15.617Z,101469.27
2018-10-12T11:52:43.788Z,101467.63
2018-10-12T11:55:11.947Z,101469.16
2018-10-12T11:57:40.116Z,101464.98
2018-10-12T12:00:08.384Z,101460.97
2018-10-12T12:02:36.542Z,101463.84
2018-10-12T12:05:04.823Z,101464.20
2018-10-12T12:07:33.079Z,101471.44
2018-10-12T12:10:01.355Z,101468.39
2018-10-12T12:12:29.699Z,101460.14
2018-10-12T12:14:57.939Z,101463.99
2018-10-12T12:17:26.126Z,101463.63
2018-10-12T12:19:54.359Z,101459.27
2018-10-12T12:22:22.535Z,101461.78
2018-10-12T12:24:50.830Z,101458.58
2018-10-12T12:27:19.000Z,101453.34
2018-10-12T12:29:47.164Z,101458.55
2018-10-12T12:32:15.368Z,101450.14
2018-10-12T12:34:43.604Z,101447.45
2018-10-12T12:37:11.680Z,101454.18
2018-10-12T12:39:39.859Z,101448.80
2018-10-12T12:42:08.067Z,101448.80
2018-10-12T12:44:36.238Z,101450.14
2018-10-12T12:47:04.475Z,101448.11
2018-10-12T12:49:32.752Z,101452.47
2018-10-12T12:52:00.783Z,101455.60
2018-10-12T12:54:28.967Z,101461.56
2018-10-12T12:56:57.215Z,101461.27
2018-10-12T12:59:25.548Z,101455.52
2018-10-12T13:01:53.971Z,101455.66
2018-10-12T13:04:22.619Z,101452.97
2018-10-12T13:06:50.325Z,101452.78
2018-10-12T13:09:21.417Z,101454.45
2018-10-12T13:11:49.704Z,101455.48
2018-10-12T13:14:17.887Z,101453.16
2018-10-12T13:16:46.084Z,101459.92
2018-10-12T13:19:14.297Z,101460.80
2018-10-12T13:21:42.587Z,101465.74
2018-10-12T13:24:10.755Z,101464.08
2018-10-12T13:26:38.896Z,101467.20
2018-10-12T13:29:07.147Z,101462.66
2018-10-12T13:31:35.325Z,101462.66
2018-10-12T13:34:03.619Z,101461.63
2018-10-12T13:36:31.787Z,101464.73
2018-10-12T13:39:00.129Z,101469.71
2018-10-12T13:41:28.264Z,101475.09
2018-10-12T13:44:05.483Z,101483.35
2018-10-12T13:46:33.683Z,101488.23
2018-10-12T13:49:08.139Z,101485.35
2018-10-12T13:51:36.335Z,101482.34
2018-10-12T13:54:04.542Z,101481.64
2018-10-12T13:56:32.730Z,101482.44
2018-10-12T13:59:00.978Z,101483.79
2018-10-12T14:01:29.181Z,101493.17
2018-10-12T14:03:57.781Z,101485.09
2018-10-12T14:06:25.948Z,101485.42
2018-10-12T14:08:54.151Z,101491.13
2018-10-12T14:11:22.307Z,101490.41
2018-10-12T14:13:50.498Z,101489.27
2018-10-12T14:16:18.655Z,101492.27
2018-10-12T14:18:47.002Z,101491.97
2018-10-12T14:21:15.059Z,101495.50
2018-10-12T14:23:43.214Z,101498.48
2018-10-12T14:26:11.479Z,101491.82
2018-10-12T14:28:39.777Z,101493.82
2018-10-12T14:31:07.926Z,101492.66
2018-10-12T14:33:36.812Z,101498.23
2018-10-12T14:36:05.097Z,101492.19
2018-10-12T14:38:33.275Z,101500.27
2018-10-12T14:41:01.478Z,101493.39
2018-10-12T14:43:29.666Z,101491.90
2018-10-12T14:45:57.839Z,101490.08
2018-10-12T14:48:26.052Z,101494.95
2018-10-12T14:50:54.328Z,101490.63
2018-10-12T14:53:22.569Z,101490.08
2018-10-12T14:55:51.538Z,101482.41
2018-10-12T14:58:19.684Z,101486.44
2018-10-12T15:00:47.906Z,101484.44
2018-10-12T15:03:16.078Z,101487.83
2018-10-12T15:05:44.242Z,101483.46
2018-10-12T15:08:12.669Z,101481.64
2018-10-12T15:10:40.830Z,101481.49
2018-10-12T15:13:09.167Z,101489.23
2018-10-12T15:15:38.526Z,101488.62
2018-10-12T15:18:06.788Z,101484.58
2018-10-12T15:20:35.332Z,101485.09
2018-10-12T15:23:03.653Z,101494.03
2018-10-12T15:25:31.845Z,101496.58
2018-10-12T15:27:59.967Z,101495.92
2018-10-12T15:30:28.125Z,101493.59
2018-10-12T15:32:56.313Z,101488.45
2018-10-12T15:35:24.491Z,101492.30
2018-10-12T15:37:53.921Z,101492.34
2018-10-12T15:40:22.166Z,101488.55
2018-10-12T15:42:50.386Z,101491.77
2018-10-12T15:45:18.550Z,101497.69
2018-10-12T15:47:46.706Z,101487.11
2018-10-12T15:50:14.882Z,101495.23
2018-10-12T15:52:43.051Z,101504.31
2018-10-12T15:55:11.260Z,101495.59
2018-10-12T15:57:39.522Z,101505.18
2018-10-12T16:00:07.753Z,101504.03
2018-10-12T16:02:35.919Z,101504.39
2018-10-12T16:05:04.091Z,101494.40
2018-10-12T16:07:32.292Z,101501.60
2018-10-12T16:10:00.487Z,101507.51
2018-10-12T16:12:28.682Z,101507.20
2018-10-12T16:14:56.852Z,101509.44
2018-10-12T16:17:25.052Z,101508.28
2018-10-12T16:19:53.295Z,101508.98
2018-10-12T16:22:21.493Z,101510.02
2018-10-12T16:25:00.943Z,101510.36
2018-10-12T16:27:29.104Z,101510.55
2018-10-12T16:29:57.371Z,101512.79
2018-10-12T16:32:25.566Z,101505.77
2018-10-12T16:34:53.755Z,101518.08
2018-10-12T16:37:21.928Z,101520.44
2018-10-12T16:39:50.192Z,101521.45
2018-10-12T16:42:18.386Z,101525.19
2018-10-12T16:44:46.606Z,101523.69
2018-10-12T16:47:14.810Z,101533.25
2018-10-12T16:49:43.033Z,101542.48
2018-10-12T16:52:11.260Z,101533.26
2018-10-12T16:54:39.524Z,101533.80
2018-10-12T16:57:07.706Z,101535.15
2018-10-12T16:59:35.913Z,101540.19
2018-10-12T17:02:04.269Z,101543.58
2018-10-12T17:04:32.449Z,101544.55
2018-10-12T17:07:00.619Z,101545.23
2018-10-12T17:09:28.782Z,101544.55
2018-10-12T17:11:56.987Z,101544.55
2018-10-12T17:14:25.179Z,101552.97
2018-10-12T17:16:53.379Z,101554.81
2018-10-12T17:19:21.555Z,101547.27
2018-10-12T17:21:51.339Z,101557.02
2018-10-12T17:24:19.474Z,101553.83
2018-10-12T17:26:47.631Z,101555.86
2018-10-12T17:29:17.123Z,101559.20
2018-10-12T17:31:47.360Z,101563.38
2018-10-12T17:34:15.536Z,101556.02
2018-10-12T17:36:43.710Z,101558.70
2018-10-12T17:39:13.168Z,101558.34
2018-10-12T17:41:41.508Z,101566.75
2018-10-12T17:44:09.705Z,101569.42
2018-10-12T17:46:37.912Z,101570.91
2018-10-12T17:49:06.074Z,101568.02
2018-10-12T17:51:34.265Z,101568.03
2018-10-12T17:54:02.458Z,101565.17
2018-10-12T17:56:30.630Z,101568.68
2018-10-12T17:58:58.787Z,101578.87
2018-10-12T18:01:26.968Z,101572.70
2018-10-12T18:03:55.167Z,101578.87
2018-10-12T18:06:23.396Z,101587.08
2018-10-12T18:08:51.737Z,101582.89
2018-10-12T18:11:19.940Z,101589.44
2018-10-12T18:13:48.201Z,101580.39
2018-10-12T18:16:16.412Z,101583.08
2018-10-12T18:18:44.565Z,101585.41
2018-10-12T18:21:12.740Z,101578.72
2018-10-12T18:23:43.004Z,101587.59
2018-10-12T18:26:11.192Z,101586.91
2018-10-12T18:28:39.288Z,101583.55
2018-10-12T18:31:07.518Z,101583.20
2018-10-12T18:33:35.706Z,101584.35
2018-10-12T18:36:03.852Z,101589.06
2018-10-12T18:38:32.007Z,101581.69
2018-10-12T18:41:00.263Z,101592.06
2018-10-12T18:43:28.472Z,101595.72
2018-10-12T18:45:56.661Z,101598.71
2018-10-12T18:48:24.829Z,101601.39
2018-10-12T18:50:52.967Z,101607.75
2018-10-12T18:53:21.124Z,101607.75
2018-10-12T18:55:49.331Z,101609.59
2018-10-12T18:58:17.487Z,101610.43
2018-10-12T19:00:45.676Z,101608.75
2018-10-12T19:03:13.895Z,101610.74
2018-10-12T19:05:42.072Z,101607.38
2018-10-12T19:08:10.220Z,101610.72
2018-10-12T19:10:38.481Z,101614.36
2018-10-12T19:13:06.634Z,101612.38
2018-10-12T19:15:35.076Z,101615.70
2018-10-12T19:18:03.799Z,101621.06
2018-10-12T19:20:38.998Z,101620.03
2018-10-12T19:23:07.242Z,101621.53
2018-10-12T19:25:35.417Z,101627.04
2018-10-12T19:28:03.867Z,101629.38
2018-10-12T19:30:32.063Z,101626.36
2018-10-12T19:33:00.325Z,101627.70
2018-10-12T19:35:28.515Z,101632.70
2018-10-12T19:37:56.675Z,101629.84
2018-10-12T19:40:26.643Z,101631.87
2018-10-12T19:42:54.864Z,101630.62
2018-10-12T19:45:23.043Z,101635.20
2018-10-12T19:47:51.247Z,101640.23
2018-10-12T19:50:19.463Z,101641.89
2018-10-12T19:52:47.694Z,101645.41
2018-10-12T19:55:15.887Z,101641.73
2018-10-12T19:57:44.065Z,101647.77
2018-10-12T20:00:12.250Z,101647.43
2018-10-12T20:02:40.432Z,101649.11
2018-10-12T20:05:08.625Z,101650.80
2018-10-12T20:07:36.796Z,101653.97
2018-10-12T20:10:05.300Z,101653.97
2018-10-12T20:12:33.511Z,101654.13
2018-10-12T20:15:01.714Z,101656.11
2018-10-12T20:17:29.887Z,101651.59
2018-10-12T20:19:58.088Z,101657.80
2018-10-12T20:22:26.243Z,101658.79
2018-10-12T20:24:55.240Z,101657.64
2018-10-12T20:27:23.427Z,101653.78
2018-10-12T20:29:51.607Z,101657.11
2018-10-12T20:32:19.850Z,101654.20
2018-10-12T20:34:48.112Z,101657.88
2018-10-12T20:37:16.320Z,101651.66
2018-10-12T20:39:44.514Z,101661.17
2018-10-12T20:42:12.754Z,101656.66
2018-10-12T20:44:41.251Z,101662.66
2018-10-12T20:47:09.433Z,101663.34
2018-10-12T20:49:37.860Z,101660.98
2018-10-12T20:52:07.182Z,101655.94
2018-10-12T20:54:35.590Z,101656.93
2018-10-12T20:57:04.306Z,101658.27
2018-10-12T20:59:32.415Z,101658.57
2018-10-12T21:02:00.600Z,101663.58
2018-10-12T21:04:28.796Z,101658.38
2018-10-12T21:06:56.996Z,101661.24
2018-10-12T21:09:25.185Z,101660.40
2018-10-12T21:11:53.361Z,101662.58
2018-10-12T21:14:21.531Z,101658.22
2018-10-12T21:16:49.703Z,101654.20
2018-10-12T21:19:17.934Z,101655.55
2018-10-12T21:21:46.140Z,101666.25
2018-10-12T21:24:15.351Z,101664.72
2018-10-12T21:26:43.720Z,101663.87
2018-10-12T21:29:11.884Z,101666.55
2018-10-12T21:31:40.083Z,101655.85
2018-10-12T21:34:08.581Z,101658.19
2018-10-12T21:36:36.828Z,101656.00
2018-10-12T21:39:05.981Z,101656.16
2018-10-12T21:41:34.442Z,101655.47
2018-10-12T21:44:02.610Z,101657.30
2018-10-12T21:46:30.838Z,101647.41
2018-10-12T21:48:58.998Z,101656.42
2018-10-12T21:51:27.174Z,101656.42
2018-10-12T21:53:55.572Z,101652.09
2018-10-12T21:56:23.732Z,101654.77
2018-10-12T21:58:52.095Z,101658.09
2018-10-12T22:01:20.255Z,101654.58
2018-10-12T22:03:48.417Z,101656.41
2018-10-12T22:06:16.579Z,101656.41
2018-10-12T22:08:51.566Z,101655.42
2018-10-12T22:11:19.755Z,101652.74
2018-10-12T22:13:47.983Z,101649.57
2018-10-12T22:16:16.168Z,101652.09
2018-10-12T22:18:44.320Z,101657.75
2018-10-12T22:21:12.550Z,101655.61
2018-10-12T22:23:40.863Z,101658.78
2018-10-12T22:26:09.098Z,101652.09
2018-10-12T22:28:37.302Z,101655.08
2018-10-12T22:31:05.477Z,101644.73
2018-10-12T22:33:33.661Z,101645.56
2018-10-12T22:36:01.830Z,101643.39
2018-10-12T22:38:29.997Z,101636.05
2018-10-12T22:40:58.143Z,101639.87
2018-10-12T22:43:26.368Z,101635.86
2018-10-12T22:45:54.543Z,101636.36
2018-10-12T22:48:22.737Z,101634.52
2018-10-12T22:50:50.940Z,101639.03
2018-10-12T22:53:19.119Z,101623.33
2018-10-12T22:55:47.290Z,101633.87
2018-10-12T22:58:15.490Z,101619.31
2018-10-12T23:00:43.656Z,101627.19
2018-10-12T23:03:11.888Z,101625.01
2018-10-12T23:05:40.050Z,101619.31
2018-10-12T23:08:08.252Z,101622.34
2018-10-12T23:10:36.456Z,101625.66
2018-10-12T23:13:04.647Z,101630.02
2018-10-12T23:15:32.858Z,101625.66
2018-10-12T23:18:01.002Z,101622.33
2018-10-12T23:20:29.193Z,101625.00
2018-10-12T23:22:57.471Z,101627.33
2018-10-12T23:25:25.654Z,101620.15
2018-10-12T23:27:53.851Z,101617.33
2018-10-12T23:30:22.071Z,101616.98
2018-10-12T23:32:50.254Z,101618.66
2018-10-12T23:35:18.487Z,101608.95
2018-10-12T23:37:46.668Z,101608.61
2018-10-12T23:40:15.809Z,101615.64
2018-10-12T23:42:43.983Z,101616.29
2018-10-12T23:45:12.171Z,101608.92
2018-10-12T23:47:40.358Z,101609.91
2018-10-12T23:50:08.539Z,101614.23
2018-10-12T23:52:36.732Z,101611.02
2018-10-12T23:55:05.074Z,101609.17
2018-10-12T23:57:33.258Z,101615.17
